Time;durP1;ratioP1;P1;durP2;ratioP2;P2;SDS_P1;SDS_P2;PMS_P1;PMS_P2;Temp;Humidity;BMP_temperature;BMP_pressure;BME280_temperature;BME280_humidity;BME280_pressure;Samples;Min_cycle;Max_cycle;Signal;HPM_P1;HPM_P2
2022/08/23 00:01:30;;;;;;;5.95;2.00;;;20.00;84.90;;;;;;5072254;28;20021;-68
2022/08/23 00:03:59;;;;;;;2.30;1.75;;;20.00;84.90;;;;;;5072617;28;20021;-68
2022/08/23 00:06:26;;;;;;;6.10;2.00;;;19.90;84.90;;;;;;5071697;28;20381;-68
2022/08/23 00:08:52;;;;;;;4.95;1.73;;;19.90;84.90;;;;;;5069836;28;20025;-68
2022/08/23 00:11:36;;;;;;;4.55;2.17;;;19.90;85.00;;;;;;5071153;28;20048;-68
2022/08/23 00:14:07;;;;;;;5.68;1.83;;;19.90;85.00;;;;;;5065581;28;20033;-68
2022/08/23 00:16:34;;;;;;;4.07;2.30;;;19.90;85.00;;;;;;5071686;28;20059;-68
2022/08/23 00:19:00;;;;;;;4.43;2.13;;;19.90;85.00;;;;;;5071959;28;20068;-68
2022/08/23 00:21:28;;;;;;;2.88;1.90;;;19.90;85.00;;;;;;5071891;28;20104;-68
2022/08/23 00:23:54;;;;;;;2.70;2.10;;;19.90;85.10;;;;;;5064087;28;20020;-68
2022/08/23 00:26:20;;;;;;;2.67;1.70;;;19.90;85.90;;;;;;5070263;28;20024;-68
2022/08/23 00:28:47;;;;;;;3.60;1.92;;;19.90;85.20;;;;;;5072150;28;20503;-68
2022/08/23 00:31:13;;;;;;;8.50;2.17;;;19.90;85.20;;;;;;5071640;28;20487;-68
2022/08/23 00:33:38;;;;;;;5.68;1.80;;;19.90;85.20;;;;;;5071646;28;20025;-68
2022/08/23 00:36:04;;;;;;;2.08;1.77;;;19.90;85.20;;;;;;5071170;28;20366;-68
2022/08/23 00:38:30;;;;;;;2.35;1.75;;;19.90;85.20;;;;;;5071793;28;20415;-68
2022/08/23 00:40:55;;;;;;;4.90;1.95;;;19.90;85.30;;;;;;5069253;28;20028;-68
2022/08/23 00:49:19;;;;;;;6.57;2.08;;;19.80;85.30;;;;;;5066227;28;20035;-68
2022/08/23 00:51:56;;;;;;;2.97;2.35;;;19.80;86.20;;;;;;5071681;28;20044;-68
2022/08/23 00:54:26;;;;;;;2.92;2.13;;;19.80;85.40;;;;;;5071068;28;20261;-68
2022/08/23 00:56:54;;;;;;;8.07;1.90;;;19.80;85.40;;;;;;5065128;28;20701;-68
2022/08/23 00:59:20;;;;;;;5.28;2.20;;;19.80;85.50;;;;;;5071342;28;20051;-68
2022/08/23 01:01:47;;;;;;;2.97;2.22;;;19.80;85.50;;;;;;5071570;28;20017;-68
2022/08/23 01:04:16;;;;;;;3.53;2.05;;;19.80;85.50;;;;;;5071428;28;20016;-68
2022/08/23 01:06:49;;;;;;;3.47;2.10;;;19.80;85.50;;;;;;5068378;28;20432;-68
2022/08/23 01:09:17;;;;;;;4.72;2.30;;;19.80;85.60;;;;;;5070905;28;20023;-68
2022/08/23 01:11:51;;;;;;;3.08;2.25;;;19.80;85.60;;;;;;5066198;28;20036;-68
2022/08/23 01:14:33;;;;;;;4.43;2.20;;;19.80;85.60;;;;;;5069608;28;20032;-69
2022/08/23 01:17:04;;;;;;;7.72;2.10;;;19.70;85.60;;;;;;5070343;28;20020;-68
2022/08/23 01:19:35;;;;;;;5.63;2.30;;;19.70;85.60;;;;;;5070813;28;20997;-68
2022/08/23 01:22:40;;;;;;;3.03;2.17;;;19.70;85.60;;;;;;5054222;28;20031;-68
2022/08/23 01:25:11;;;;;;;3.15;1.83;;;19.70;85.70;;;;;;5062799;28;20024;-68
2022/08/23 01:27:37;;;;;;;2.70;1.70;;;19.70;85.70;;;;;;5069203;28;20538;-68
2022/08/23 01:30:09;;;;;;;4.75;2.45;;;19.70;85.80;;;;;;5070650;28;20016;-68
2022/08/23 01:32:43;;;;;;;5.05;1.80;;;19.70;85.70;;;;;;5070865;28;20017;-68
2022/08/23 01:35:09;;;;;;;4.10;2.03;;;19.70;85.80;;;;;;5061630;28;20033;-68
2022/08/23 01:37:35;;;;;;;5.35;2.50;;;19.70;85.80;;;;;;5070692;28;20017;-68
2022/08/23 01:40:01;;;;;;;2.53;2.17;;;19.70;85.80;;;;;;5069880;28;20050;-69
2022/08/23 01:42:27;;;;;;;2.67;2.20;;;19.70;85.80;;;;;;5066837;28;20071;-68
2022/08/23 01:44:53;;;;;;;4.65;1.92;;;19.70;85.90;;;;;;5069723;28;20419;-68
2022/08/23 01:47:18;;;;;;;2.30;1.77;;;19.60;85.80;;;;;;5069998;28;20028;-68
2022/08/23 01:49:44;;;;;;;3.80;2.13;;;19.70;85.80;;;;;;5070241;28;20422;-68
2022/08/23 01:52:10;;;;;;;3.40;2.65;;;19.60;85.90;;;;;;5070161;28;20020;-68
2022/08/23 01:54:35;;;;;;;4.18;2.25;;;19.60;85.90;;;;;;5069735;28;20118;-69
2022/08/23 01:57:01;;;;;;;4.53;2.38;;;19.60;85.90;;;;;;5067401;28;20059;-68
2022/08/23 01:59:27;;;;;;;4.20;2.30;;;19.60;85.90;;;;;;5069536;28;20385;-68
2022/08/23 02:01:53;;;;;;;2.90;2.40;;;19.60;85.90;;;;;;5070201;28;20028;-68
2022/08/23 02:04:19;;;;;;;3.10;2.40;;;19.60;85.90;;;;;;5070165;28;20016;-68
2022/08/23 02:06:44;;;;;;;7.05;2.17;;;19.60;86.00;;;;;;5068773;28;20024;-68
2022/08/23 02:09:10;;;;;;;4.63;2.70;;;19.60;86.00;;;;;;5069582;28;20074;-68
2022/08/23 02:11:38;;;;;;;6.75;2.75;;;19.60;86.00;;;;;;5069411;28;20029;-68
2022/08/23 02:14:08;;;;;;;3.75;2.35;;;19.60;86.00;;;;;;5069867;28;20004;-68
2022/08/23 02:16:42;;;;;;;6.10;2.00;;;19.60;86.00;;;;;;5069549;28;20472;-68
2022/08/23 02:19:10;;;;;;;3.22;2.05;;;19.60;86.80;;;;;;5061332;28;20267;-69
2022/08/23 02:21:37;;;;;;;3.40;2.13;;;19.50;86.00;;;;;;5068570;28;20021;-68
2022/08/23 02:24:16;;;;;;;3.17;2.08;;;19.60;86.10;;;;;;5069405;28;20099;-68
2022/08/23 02:26:46;;;;;;;5.40;2.35;;;19.50;86.00;;;;;;5068670;28;20031;-69
2022/08/23 02:29:13;;;;;;;10.68;2.42;;;19.50;86.00;;;;;;5069456;28;20023;-68
2022/08/23 02:31:39;;;;;;;3.80;2.53;;;19.60;86.10;;;;;;5064150;28;20032;-68
2022/08/23 02:34:05;;;;;;;3.17;2.08;;;19.50;86.00;;;;;;5069737;28;20381;-68
2022/08/23 02:36:32;;;;;;;2.88;2.25;;;19.50;86.10;;;;;;5069241;28;20032;-69
2022/08/23 02:38:58;;;;;;;3.17;2.25;;;19.50;86.10;;;;;;5069176;28;20039;-69
2022/08/23 02:41:24;;;;;;;4.13;2.13;;;19.50;86.10;;;;;;5069838;28;20024;-68
2022/08/23 02:43:51;;;;;;;8.88;2.80;;;19.50;86.00;;;;;;5060799;28;20033;-68
2022/08/23 02:46:17;;;;;;;3.67;2.45;;;19.50;86.60;;;;;;5068687;28;20020;-68
2022/08/23 02:48:43;;;;;;;5.63;2.65;;;19.50;86.00;;;;;;5069433;28;20413;-68
2022/08/23 02:51:09;;;;;;;4.45;2.67;;;19.50;86.10;;;;;;5069011;28;20026;-68
2022/08/23 02:53:35;;;;;;;4.50;2.33;;;19.50;86.10;;;;;;5068945;28;20036;-68
2022/08/23 02:56:02;;;;;;;4.90;2.50;;;19.50;86.10;;;;;;5069823;28;20060;-68
2022/08/23 02:58:28;;;;;;;5.28;2.50;;;19.50;86.10;;;;;;5065693;28;20079;-68
2022/08/23 03:00:53;;;;;;;2.72;2.10;;;19.50;86.10;;;;;;5073500;28;20417;-68
2022/08/23 03:03:20;;;;;;;3.22;2.42;;;19.50;86.10;;;;;;5073467;28;20469;-68
2022/08/23 03:05:46;;;;;;;3.25;2.33;;;19.50;86.10;;;;;;5072720;28;20019;-68
2022/08/23 03:08:12;;;;;;;5.70;2.03;;;19.50;86.10;;;;;;5072398;28;20016;-68
2022/08/23 03:10:45;;;;;;;7.07;2.80;;;19.40;86.10;;;;;;5073305;28;20013;-68
2022/08/23 03:13:10;;;;;;;4.55;2.40;;;19.40;86.10;;;;;;5072351;28;20062;-68
2022/08/23 03:15:37;;;;;;;4.53;2.50;;;19.50;86.20;;;;;;5072704;28;20537;-68
2022/08/23 03:18:03;;;;;;;3.42;2.20;;;19.50;86.20;;;;;;5072942;28;20035;-68
2022/08/23 03:20:29;;;;;;;4.95;2.55;;;19.40;86.20;;;;;;5073224;28;20036;-68
2022/08/23 03:22:55;;;;;;;4.00;2.28;;;19.40;86.20;;;;;;5071510;28;20097;-68
2022/08/23 03:25:21;;;;;;;4.97;2.30;;;19.40;86.10;;;;;;5072583;28;20035;-68
2022/08/23 03:27:47;;;;;;;7.07;3.28;;;19.40;86.20;;;;;;5071477;28;20038;-68
2022/08/23 03:30:12;;;;;;;6.18;2.35;;;19.40;86.20;;;;;;5073029;28;20021;-68
2022/08/23 03:32:38;;;;;;;4.82;2.53;;;19.40;86.20;;;;;;5072908;28;20012;-68
2022/08/23 03:35:05;;;;;;;5.15;2.30;;;19.40;86.20;;;;;;5072482;28;20064;-68
2022/08/23 03:37:31;;;;;;;4.53;2.50;;;19.40;86.20;;;;;;5072925;28;20020;-68
2022/08/23 03:39:57;;;;;;;3.80;2.22;;;19.40;86.30;;;;;;5072534;28;20028;-68
2022/08/23 03:42:23;;;;;;;7.65;2.53;;;19.40;86.20;;;;;;5070541;28;20051;-69
2022/08/23 03:44:49;;;;;;;4.68;2.58;;;19.40;86.30;;;;;;5072351;28;20108;-68
2022/08/23 03:47:14;;;;;;;4.78;2.28;;;19.30;86.20;;;;;;5072461;28;20443;-68
2022/08/23 03:49:40;;;;;;;5.32;2.50;;;19.30;86.20;;;;;;5072703;28;20023;-68
2022/08/23 03:52:06;;;;;;;2.42;2.20;;;19.40;86.30;;;;;;5072502;28;20029;-68
2022/08/23 03:54:32;;;;;;;4.93;2.35;;;19.40;86.30;;;;;;5072246;28;20028;-68
2022/08/23 03:57:04;;;;;;;4.95;2.28;;;19.30;86.20;;;;;;5071843;28;20021;-68
2022/08/23 03:59:32;;;;;;;3.33;2.10;;;19.40;86.30;;;;;;5071648;28;20081;-68
2022/08/23 04:01:58;;;;;;;4.55;2.65;;;19.30;86.20;;;;;;5072899;28;20032;-69
2022/08/23 04:04:24;;;;;;;10.07;2.20;;;19.40;86.40;;;;;;5072555;28;20020;-68
2022/08/23 04:06:49;;;;;;;2.10;1.90;;;19.30;86.30;;;;;;5070730;28;20483;-68
2022/08/23 04:09:16;;;;;;;4.15;1.73;;;19.40;86.40;;;;;;5072290;28;20021;-68
2022/08/23 04:11:42;;;;;;;2.88;2.03;;;19.30;86.30;;;;;;5072896;28;20482;-68
2022/08/23 04:17:03;;;;;;;5.70;2.30;;;19.30;86.30;;;;;;5094887;22;20049;-63
2022/08/23 04:19:30;;;;;;;2.22;2.03;;;19.30;86.40;;;;;;5071010;28;20028;-63
2022/08/23 04:21:56;;;;;;;5.35;2.95;;;19.30;86.40;;;;;;5072085;28;20024;-63
2022/08/23 04:24:21;;;;;;;3.35;2.20;;;19.30;86.30;;;;;;5071863;28;20040;-63
2022/08/23 04:26:47;;;;;;;9.32;2.58;;;19.30;86.30;;;;;;5070908;28;20025;-63
2022/08/23 04:29:15;;;;;;;3.58;2.20;;;19.20;86.20;;;;;;5069052;28;20032;-63
2022/08/23 04:31:42;;;;;;;2.88;2.13;;;19.30;86.30;;;;;;5070308;28;20119;-63
2022/08/23 04:34:08;;;;;;;4.05;2.33;;;19.20;86.30;;;;;;5071485;28;20078;-63
2022/08/23 04:36:37;;;;;;;4.68;2.20;;;19.30;86.30;;;;;;5070995;28;20017;-63
2022/08/23 04:39:04;;;;;;;5.87;2.37;;;19.20;86.30;;;;;;5070635;28;20028;-64
2022/08/23 04:44:14;;;;;;;4.95;2.53;;;19.30;86.40;;;;;;5070236;28;21417;-63
2022/08/23 04:46:42;;;;;;;6.15;2.35;;;19.20;86.30;;;;;;5070741;28;20036;-63
2022/08/23 04:49:08;;;;;;;3.35;2.30;;;19.20;86.30;;;;;;5070961;28;20451;-64
2022/08/23 04:51:34;;;;;;;3.22;2.20;;;19.20;86.40;;;;;;5071111;28;20016;-63
2022/08/23 04:54:02;;;;;;;6.45;2.42;;;19.20;86.30;;;;;;5070929;28;20024;-64
2022/08/23 04:56:27;;;;;;;6.70;2.25;;;19.20;86.30;;;;;;5068808;28;20046;-64
2022/08/23 04:58:54;;;;;;;4.00;2.30;;;19.20;86.40;;;;;;5071080;28;20025;-63
2022/08/23 05:01:20;;;;;;;9.52;2.42;;;19.20;86.40;;;;;;5061390;28;20040;-63
2022/08/23 05:03:45;;;;;;;2.70;2.42;;;19.20;86.40;;;;;;5071185;28;20374;-63
2022/08/23 05:06:11;;;;;;;3.47;2.17;;;19.20;86.40;;;;;;5070710;28;20089;-63
2022/08/23 05:08:37;;;;;;;9.35;2.20;;;19.20;86.40;;;;;;5068832;28;20017;-64
2022/08/23 05:11:06;;;;;;;7.55;2.70;;;19.20;86.60;;;;;;5069903;28;20035;-63
2022/08/23 05:13:33;;;;;;;4.78;2.30;;;19.20;86.40;;;;;;5070514;28;20108;-63
2022/08/23 05:15:59;;;;;;;3.60;2.30;;;19.20;86.40;;;;;;5067473;28;20105;-64
2022/08/23 05:18:25;;;;;;;3.60;2.42;;;19.20;86.40;;;;;;5070150;28;20025;-63
2022/08/23 05:20:51;;;;;;;3.78;2.40;;;19.20;86.30;;;;;;5069483;28;20052;-63
2022/08/23 05:23:17;;;;;;;5.55;2.42;;;19.20;86.20;;;;;;5070203;28;20063;-64
2022/08/23 05:25:49;;;;;;;5.70;2.78;;;19.20;86.20;;;;;;5069493;28;20024;-64
2022/08/23 05:28:18;;;;;;;5.57;2.70;;;19.20;86.10;;;;;;5070735;28;20024;-64
2022/08/23 05:30:44;;;;;;;9.18;2.40;;;19.20;86.00;;;;;;5069164;28;20025;-63
2022/08/23 05:33:11;;;;;;;2.75;2.13;;;19.30;86.00;;;;;;5070528;28;20052;-63
2022/08/23 05:35:38;;;;;;;6.25;2.47;;;19.30;86.00;;;;;;5061282;28;20232;-63
2022/08/23 05:38:04;;;;;;;4.72;2.20;;;19.30;85.90;;;;;;5069344;28;20064;-63
2022/08/23 05:40:30;;;;;;;6.20;2.35;;;19.30;85.80;;;;;;5070407;28;20021;-63
2022/08/23 05:42:56;;;;;;;3.22;2.42;;;19.30;85.80;;;;;;5070128;28;20036;-63
2022/08/23 05:45:22;;;;;;;2.88;2.17;;;19.30;85.80;;;;;;5059889;28;20029;-64
2022/08/23 05:47:48;;;;;;;5.28;2.63;;;19.30;85.80;;;;;;5063392;28;20055;-63
2022/08/23 05:50:14;;;;;;;4.53;2.53;;;19.40;85.80;;;;;;5070135;28;20059;-63
2022/08/23 05:52:40;;;;;;;6.40;2.47;;;19.40;85.80;;;;;;5069396;28;20056;-63
2022/08/23 05:55:07;;;;;;;8.77;2.85;;;19.40;85.80;;;;;;5069460;28;20477;-63
2022/08/23 05:57:37;;;;;;;6.05;2.50;;;19.50;85.80;;;;;;5070058;28;20104;-63
2022/08/23 06:00:14;;;;;;;6.03;2.80;;;19.50;85.70;;;;;;5068382;28;20025;-63
2022/08/23 06:02:41;;;;;;;5.32;2.40;;;19.50;85.60;;;;;;5068765;28;20567;-64
2022/08/23 06:05:08;;;;;;;8.45;2.47;;;19.50;85.60;;;;;;5067896;28;20024;-64
2022/08/23 06:07:34;;;;;;;7.70;3.40;;;19.60;85.50;;;;;;5070068;28;20032;-63
2022/08/23 06:10:00;;;;;;;6.35;2.88;;;19.60;85.40;;;;;;5068372;28;20303;-63
2022/08/23 06:12:26;;;;;;;5.38;2.90;;;19.60;85.30;;;;;;5068318;28;20031;-64
2022/08/23 06:14:51;;;;;;;6.20;2.50;;;19.70;85.20;;;;;;5067168;28;20123;-64
2022/08/23 06:17:17;;;;;;;6.57;2.90;;;19.70;85.20;;;;;;5069219;28;20424;-63
2022/08/23 06:19:43;;;;;;;3.17;2.63;;;19.80;86.00;;;;;;5069811;28;20020;-63
2022/08/23 06:22:08;;;;;;;9.48;3.38;;;19.80;85.10;;;;;;5068980;28;20025;-63
2022/08/23 06:24:35;;;;;;;3.42;2.80;;;19.90;85.10;;;;;;5069530;28;20481;-64
2022/08/23 06:27:01;;;;;;;8.40;2.90;;;19.90;84.90;;;;;;5067765;28;20127;-64
2022/08/23 06:29:27;;;;;;;12.85;3.20;;;20.00;84.90;;;;;;5069416;28;20111;-64
2022/08/23 06:31:53;;;;;;;4.18;2.92;;;20.00;84.90;;;;;;5068081;28;20504;-63
2022/08/23 06:34:32;;;;;;;4.50;2.85;;;20.10;85.00;;;;;;5069408;28;20036;-63
2022/08/23 06:37:00;;;;;;;5.80;3.13;;;20.20;85.00;;;;;;5061043;28;20032;-64
2022/08/23 06:39:30;;;;;;;9.02;3.30;;;20.20;85.00;;;;;;5069309;28;20032;-64
2022/08/23 06:42:16;;;;;;;6.35;3.30;;;20.30;85.00;;;;;;5069429;28;20029;-63
2022/08/23 06:44:42;;;;;;;19.55;4.10;;;20.30;84.90;;;;;;5069541;28;20533;-63
2022/08/23 06:47:08;;;;;;;7.35;3.28;;;20.40;84.90;;;;;;5066684;28;20119;-63
2022/08/23 06:49:35;;;;;;;7.13;3.65;;;20.40;84.70;;;;;;5067814;28;20124;-64
2022/08/23 06:52:04;;;;;;;4.63;3.50;;;20.50;84.60;;;;;;5069384;28;20020;-64
2022/08/23 06:54:32;;;;;;;4.97;3.15;;;20.50;84.50;;;;;;5068715;28;20039;-63
2022/08/23 06:56:59;;;;;;;15.10;3.33;;;20.60;84.50;;;;;;5069025;28;20298;-63
2022/08/23 06:59:26;;;;;;;17.08;6.00;;;20.60;84.40;;;;;;5069094;28;20099;-64
2022/08/23 07:01:55;;;;;;;11.52;4.00;;;20.70;84.40;;;;;;5068086;28;20418;-64
2022/08/23 07:04:27;;;;;;;5.60;3.67;;;20.80;84.40;;;;;;5069243;28;20514;-64
2022/08/23 07:06:54;;;;;;;5.65;4.55;;;20.80;84.20;;;;;;5059683;28;20108;-64
2022/08/23 07:09:19;;;;;;;11.43;5.10;;;20.80;84.20;;;;;;5067295;28;20461;-63
2022/08/23 07:11:45;;;;;;;10.18;5.63;;;20.90;84.00;;;;;;5069025;28;20063;-63
2022/08/23 07:14:14;;;;;;;13.18;6.38;;;20.90;83.30;;;;;;5068278;28;20496;-64
2022/08/23 07:16:44;;;;;;;11.35;5.43;;;20.90;82.70;;;;;;5067416;28;20545;-64
2022/08/23 07:19:11;;;;;;;12.43;6.05;;;20.90;82.40;;;;;;5068915;28;20063;-64
2022/08/23 07:21:37;;;;;;;19.52;7.03;;;21.10;82.20;;;;;;5068628;28;20039;-64
2022/08/23 07:24:03;;;;;;;18.15;6.38;;;21.10;81.90;;;;;;5068204;28;20051;-65
2022/08/23 07:26:31;;;;;;;11.02;6.07;;;21.10;81.70;;;;;;5066608;28;20035;-64
2022/08/23 07:28:56;;;;;;;17.88;6.43;;;21.20;81.60;;;;;;5067780;28;20162;-64
2022/08/23 07:31:27;;;;;;;14.57;5.22;;;21.30;81.40;;;;;;5067553;28;20562;-64
2022/08/23 07:34:01;;;;;;;11.65;5.43;;;21.30;81.40;;;;;;5060318;28;20063;-64
2022/08/23 07:36:28;;;;;;;6.90;4.25;;;21.40;81.40;;;;;;5068781;28;20041;-64
2022/08/23 07:38:55;;;;;;;10.02;4.80;;;21.40;81.20;;;;;;5068732;28;20112;-64
2022/08/23 07:41:23;;;;;;;9.93;5.07;;;21.40;81.00;;;;;;5068996;28;20033;-64
2022/08/23 07:43:49;;;;;;;6.43;4.55;;;21.50;80.90;;;;;;5072337;28;20037;-64
2022/08/23 07:46:15;;;;;;;9.60;5.22;;;21.50;80.90;;;;;;5064437;28;20684;-64
2022/08/23 07:48:41;;;;;;;11.93;4.88;;;21.60;80.80;;;;;;5069446;28;20108;-64
2022/08/23 07:51:10;;;;;;;10.13;4.13;;;21.60;80.50;;;;;;5072892;28;20047;-64
2022/08/23 07:53:36;;;;;;;6.88;4.22;;;21.60;80.40;;;;;;5072663;28;20103;-64
2022/08/23 07:56:06;;;;;;;12.27;4.22;;;21.70;80.20;;;;;;5071871;28;20124;-64
2022/08/23 07:58:32;;;;;;;8.13;3.70;;;21.70;79.90;;;;;;5070907;28;20020;-64
2022/08/23 08:01:10;;;;;;;6.22;3.75;;;21.80;79.70;;;;;;5068126;28;20420;-65
2022/08/23 08:03:37;;;;;;;6.47;3.55;;;21.80;79.70;;;;;;5069823;28;20039;-64
2022/08/23 08:06:08;;;;;;;6.18;3.70;;;21.80;79.50;;;;;;5071743;28;20024;-65
2022/08/23 08:08:34;;;;;;;7.90;4.25;;;21.90;79.40;;;;;;5070557;28;20354;-64
2022/08/23 08:10:59;;;;;;;11.25;3.97;;;21.90;79.30;;;;;;5072261;28;20484;-64
2022/08/23 08:13:25;;;;;;;8.82;3.95;;;21.90;79.20;;;;;;5070851;28;20031;-64
2022/08/23 08:15:50;;;;;;;6.47;3.22;;;21.90;79.20;;;;;;5070451;28;20461;-65
2022/08/23 08:18:16;;;;;;;8.55;3.80;;;22.00;79.20;;;;;;5070670;28;20106;-64
2022/08/23 08:20:45;;;;;;;7.95;3.80;;;22.00;79.30;;;;;;5071980;28;20123;-64
2022/08/23 08:23:10;;;;;;;7.68;3.17;;;22.10;79.40;;;;;;5069935;28;20016;-64
2022/08/23 08:25:36;;;;;;;8.98;4.18;;;22.10;79.30;;;;;;5070918;28;20024;-64
2022/08/23 08:28:02;;;;;;;8.75;3.92;;;22.10;79.30;;;;;;5071652;28;20059;-64
2022/08/23 08:30:27;;;;;;;8.68;3.63;;;22.20;79.40;;;;;;5070109;28;20016;-64
2022/08/23 08:32:53;;;;;;;8.13;3.85;;;22.20;79.40;;;;;;5064255;28;20409;-64
2022/08/23 08:35:19;;;;;;;9.93;4.00;;;22.20;79.40;;;;;;5069922;28;20036;-64
2022/08/23 08:37:44;;;;;;;7.25;3.30;;;22.20;79.40;;;;;;5071030;28;20085;-65
2022/08/23 08:40:10;;;;;;;9.50;3.08;;;22.30;79.50;;;;;;5071395;28;20427;-64
2022/08/23 08:43:17;;;;;;;6.00;3.33;;;22.30;79.30;;;;;;5071542;28;20108;-64
2022/08/23 08:46:01;;;;;;;7.72;3.55;;;22.30;79.20;;;;;;5068341;28;20028;-64
2022/08/23 08:48:31;;;;;;;8.27;3.80;;;22.40;79.20;;;;;;5066822;28;20024;-64
2022/08/23 08:51:08;;;;;;;8.77;4.93;;;22.40;79.10;;;;;;5071172;28;20358;-64
2022/08/23 08:53:42;;;;;;;7.53;4.22;;;22.40;79.20;;;;;;5069883;28;20075;-64
2022/08/23 08:56:22;;;;;;;9.38;4.55;;;22.50;79.10;;;;;;5063133;28;20431;-64
2022/08/23 08:58:51;;;;;;;6.35;3.97;;;22.50;78.90;;;;;;5071035;28;20028;-64
2022/08/23 09:01:19;;;;;;;7.65;3.22;;;22.50;78.80;;;;;;5069851;28;20043;-65
2022/08/23 09:03:45;;;;;;;10.10;3.97;;;22.50;78.70;;;;;;5070464;28;20038;-64
2022/08/23 09:06:49;;;;;;;9.93;3.80;;;22.50;78.30;;;;;;5070668;28;20024;-64
2022/08/23 09:09:52;;;;;;;7.45;2.85;;;22.60;78.20;;;;;;4970693;28;20045;-64
2022/08/23 09:12:36;;;;;;;5.10;3.70;;;22.60;78.20;;;;;;4982138;28;20065;-64
2022/08/23 09:15:33;;;;;;;9.25;3.45;;;22.60;77.70;;;;;;4978365;28;20853;-64
2022/08/23 09:18:07;;;;;;;8.32;3.80;;;22.60;77.70;;;;;;4972889;28;20034;-64
2022/08/23 09:20:34;;;;;;;8.93;3.63;;;22.60;77.80;;;;;;4988923;28;20033;-64
2022/08/23 09:23:09;;;;;;;13.00;3.13;;;22.70;78.00;;;;;;4987910;28;20520;-64
2022/08/23 09:25:35;;;;;;;10.50;3.00;;;22.70;78.00;;;;;;4988141;28;20070;-64
2022/08/23 09:28:01;;;;;;;6.90;3.30;;;22.70;78.20;;;;;;4987633;28;20104;-65
2022/08/23 09:30:53;;;;;;;5.63;2.92;;;22.70;78.00;;;;;;4988261;28;20022;-64
2022/08/23 09:33:24;;;;;;;6.82;3.22;;;22.70;77.90;;;;;;4983150;28;20507;-64
2022/08/23 09:36:14;;;;;;;6.70;3.03;;;22.70;77.80;;;;;;4986831;28;20547;-64
2022/08/23 09:38:53;;;;;;;9.75;3.15;;;22.70;77.80;;;;;;4964549;28;20030;-64
2022/08/23 09:41:30;;;;;;;7.57;2.80;;;22.70;78.10;;;;;;4988596;28;20525;-64
2022/08/23 09:43:57;;;;;;;4.90;2.28;;;22.70;78.50;;;;;;4996220;28;20030;-64
2022/08/23 09:46:29;;;;;;;7.07;3.03;;;22.70;79.00;;;;;;5069373;28;20553;-64
2022/08/23 09:48:57;;;;;;;8.13;3.20;;;22.70;80.10;;;;;;5069011;28;20097;-64
2022/08/23 09:51:40;;;;;;;2.42;1.98;;;22.60;79.30;;;;;;5068789;28;20500;-64
2022/08/23 09:54:19;;;;;;;9.30;2.63;;;22.60;79.40;;;;;;5069847;28;20492;-64
2022/08/23 09:56:52;;;;;;;2.92;2.17;;;22.60;79.50;;;;;;5069375;28;20016;-64
2022/08/23 09:59:23;;;;;;;6.47;2.38;;;22.60;79.50;;;;;;5062586;28;20396;-64
2022/08/23 10:01:50;;;;;;;6.18;3.00;;;22.60;79.60;;;;;;5068334;28;20032;-65
2022/08/23 10:04:21;;;;;;;5.97;2.20;;;22.50;79.60;;;;;;5067478;28;20099;-64
2022/08/23 10:06:48;;;;;;;3.15;2.30;;;22.50;79.60;;;;;;5068890;28;20107;-64
2022/08/23 10:09:32;;;;;;;4.18;2.22;;;22.50;79.70;;;;;;5061303;28;20028;-64
2022/08/23 10:11:59;;;;;;;4.38;2.50;;;22.50;79.70;;;;;;5069927;28;20028;-65
2022/08/23 10:14:26;;;;;;;6.78;2.20;;;22.40;79.90;;;;;;5068868;28;20546;-64
2022/08/23 10:17:25;;;;;;;3.22;2.30;;;22.40;80.00;;;;;;5066890;28;20378;-65
2022/08/23 10:20:21;;;;;;;6.78;2.33;;;22.40;80.10;;;;;;5058271;28;20033;-64
2022/08/23 10:23:15;;;;;;;6.10;2.53;;;22.30;80.20;;;;;;5069653;28;20028;-64
2022/08/23 10:25:50;;;;;;;9.80;2.42;;;22.30;80.40;;;;;;5065145;28;20032;-64
2022/08/23 10:31:46;;;;;;;4.22;2.15;;;22.20;80.70;;;;;;5064216;28;20055;-64
2022/08/23 10:34:14;;;;;;;;;;;22.20;80.80;;;;;;5068923;28;20037;-64
2022/08/23 10:36:50;;;;;;;5.55;2.38;;;22.20;81.10;;;;;;5069542;28;19915;-64
2022/08/23 10:39:27;;;;;;;4.45;2.10;;;22.20;81.20;;;;;;5068904;28;20016;-64
2022/08/23 10:42:05;;;;;;;8.48;2.22;;;22.10;81.30;;;;;;5067671;28;20103;-65
2022/08/23 10:44:36;;;;;;;5.10;2.50;;;22.10;81.30;;;;;;5068703;28;20029;-65
2022/08/23 10:47:10;;;;;;;8.10;2.97;;;22.10;81.40;;;;;;5068079;28;20035;-65
2022/08/23 10:49:39;;;;;;;5.47;2.70;;;22.10;80.10;;;;;;5065282;28;20056;-64
2022/08/23 10:52:13;;;;;;;8.23;2.63;;;22.10;80.00;;;;;;5068023;28;20516;-64
2022/08/23 10:55:04;;;;;;;5.80;2.20;;;22.10;80.40;;;;;;5068237;28;20066;-64
2022/08/23 10:57:34;;;;;;;5.55;2.85;;;22.00;80.70;;;;;;5062575;28;20048;-64
2022/08/23 11:00:04;;;;;;;4.47;1.98;;;22.00;80.90;;;;;;5069157;28;20021;-64
2022/08/23 11:02:51;;;;;;;4.82;2.35;;;22.00;81.10;;;;;;5066429;28;20029;-64
2022/08/23 11:05:20;;;;;;;5.57;2.50;;;21.90;81.10;;;;;;5066985;28;20030;-64
2022/08/23 11:08:00;;;;;;;4.00;2.17;;;21.90;81.10;;;;;;5069574;28;20017;-64
2022/08/23 11:10:29;;;;;;;11.35;2.40;;;21.90;81.10;;;;;;5058377;28;20123;-64
2022/08/23 11:12:58;;;;;;;5.32;2.22;;;21.80;81.00;;;;;;5064915;28;20021;-64
2022/08/23 11:15:28;;;;;;;7.88;2.53;;;21.80;81.00;;;;;;5057269;28;20059;-64
2022/08/23 11:18:03;;;;;;;6.57;2.47;;;21.80;80.90;;;;;;5065670;28;20524;-64
2022/08/23 11:20:48;;;;;;;4.05;2.28;;;21.80;81.00;;;;;;5062515;28;20032;-64
2022/08/23 11:23:15;;;;;;;6.68;2.10;;;21.80;81.00;;;;;;5073054;28;20059;-64
2022/08/23 11:25:43;;;;;;;5.80;2.30;;;21.80;81.10;;;;;;5073151;28;20037;-64
2022/08/23 11:28:21;;;;;;;4.60;2.03;;;21.80;81.10;;;;;;5074021;28;20024;-64
2022/08/23 11:30:51;;;;;;;2.40;1.70;;;21.70;81.10;;;;;;5073638;28;20020;-64
2022/08/23 11:36:38;;;;;;;6.82;1.90;;;21.70;81.20;;;;;;5060044;28;20093;-64
2022/08/23 11:39:09;;;;;;;2.72;2.08;;;21.70;81.20;;;;;;5073279;28;20020;-64
2022/08/23 11:41:55;;;;;;;3.58;2.28;;;21.70;81.20;;;;;;5068697;28;20035;-64
2022/08/23 11:44:32;;;;;;;4.25;1.92;;;21.70;81.30;;;;;;5055246;28;20401;-64
2022/08/23 11:47:02;;;;;;;5.53;2.15;;;21.70;81.10;;;;;;5071919;28;20027;-65
2022/08/23 11:49:39;;;;;;;2.33;1.73;;;21.70;80.90;;;;;;5081631;23;20036;-69
2022/08/23 11:52:14;;;;;;;3.55;2.20;;;21.70;81.10;;;;;;5058228;28;20505;-69
2022/08/23 11:55:09;;;;;;;6.35;2.38;;;21.60;81.20;;;;;;5057762;28;20501;-69
2022/08/23 11:57:57;;;;;;;5.28;1.90;;;21.70;81.40;;;;;;5059791;28;20386;-69
2022/08/23 12:01:01;;;;;;;6.70;2.22;;;21.70;81.30;;;;;;5061087;28;20465;-70
2022/08/23 12:03:35;;;;;;;3.47;1.95;;;21.70;81.30;;;;;;5036665;28;20075;-70
2022/08/23 12:06:09;;;;;;;15.55;3.00;;;21.60;81.20;;;;;;5058871;28;20316;-69
2022/08/23 12:08:48;;;;;;;6.55;2.20;;;21.60;81.20;;;;;;5060174;28;20119;-70
2022/08/23 12:11:16;;;;;;;6.97;2.03;;;21.70;81.20;;;;;;5059392;28;20049;-69
2022/08/23 12:13:50;;;;;;;4.68;2.22;;;21.70;81.10;;;;;;5063778;28;20020;-69
2022/08/23 12:16:17;;;;;;;3.67;2.00;;;21.70;81.10;;;;;;5060779;28;20035;-69
2022/08/23 12:18:43;;;;;;;3.97;2.20;;;21.60;81.10;;;;;;5060104;28;20032;-69
2022/08/23 12:21:21;;;;;;;6.65;1.95;;;21.70;81.20;;;;;;5058013;28;20381;-69
2022/08/23 12:23:57;;;;;;;4.03;1.92;;;21.60;81.20;;;;;;5063134;28;20047;-69
2022/08/23 12:26:41;;;;;;;8.93;2.28;;;21.60;81.10;;;;;;5059994;28;20111;-69
2022/08/23 12:29:25;;;;;;;3.58;1.80;;;21.60;81.10;;;;;;5060114;28;20052;-69
2022/08/23 12:32:08;;;;;;;4.68;2.10;;;21.60;81.00;;;;;;5060015;28;20025;-69
2022/08/23 12:34:43;;;;;;;4.15;2.03;;;21.70;81.10;;;;;;5061363;28;20725;-69
2022/08/23 12:37:35;;;;;;;5.45;2.00;;;21.60;81.20;;;;;;5063031;28;20028;-69
2022/08/23 12:40:07;;;;;;;8.10;2.35;;;21.60;81.20;;;;;;5060049;28;20021;-70
2022/08/23 12:42:36;;;;;;;9.75;2.08;;;21.60;81.30;;;;;;5063077;28;20017;-69
2022/08/23 12:45:15;;;;;;;3.03;2.00;;;21.60;81.20;;;;;;5062337;28;20012;-70
2022/08/23 12:47:43;;;;;;;2.23;1.77;;;21.60;81.20;;;;;;5059947;28;20017;-69
2022/08/23 12:50:20;;;;;;;6.93;2.15;;;21.60;81.20;;;;;;5064548;28;20138;-69
2022/08/23 12:53:19;;;;;;;2.33;1.70;;;21.60;81.20;;;;;;5059769;28;20043;-69
2022/08/23 12:55:49;;;;;;;3.85;2.10;;;21.60;81.30;;;;;;5048275;28;20033;-69
2022/08/23 12:58:24;;;;;;;5.28;2.17;;;21.60;81.40;;;;;;5060022;28;20032;-69
2022/08/23 13:00:56;;;;;;;7.28;1.88;;;21.60;81.40;;;;;;5063254;28;20508;-69
2022/08/23 13:03:28;;;;;;;3.88;1.98;;;21.60;81.40;;;;;;5061706;28;20496;-69
2022/08/23 13:06:01;;;;;;;2.80;1.77;;;21.60;81.50;;;;;;5057337;28;20115;-69
2022/08/23 13:08:49;;;;;;;4.78;1.92;;;21.60;81.50;;;;;;5060727;28;20107;-69
2022/08/23 13:11:19;;;;;;;3.92;1.80;;;21.60;81.60;;;;;;5059206;28;20040;-69
2022/08/23 13:13:45;;;;;;;8.77;2.28;;;21.60;81.60;;;;;;5059639;28;20115;-69
2022/08/23 13:17:00;;;;;;;6.28;2.10;;;21.60;81.60;;;;;;5054289;28;20541;-69
2022/08/23 13:19:34;;;;;;;7.65;1.70;;;21.60;81.60;;;;;;5054596;28;20029;-69
2022/08/23 13:22:21;;;;;;;3.03;2.10;;;21.60;81.70;;;;;;5051223;28;20508;-70